createdAt,value
2023-05-14T00:01:03.003Z,101039.53
2023-05-14T00:04:12.731Z,101065.47
2023-05-14T00:07:21.327Z,101057.09
2023-05-14T00:10:27.981Z,101056.59
2023-05-14T00:13:40.458Z,101054.47
2023-05-14T00:16:53.130Z,101047.59
2023-05-14T00:20:07.700Z,101044.63
2023-05-14T00:23:22.452Z,101051.16
2023-05-14T00:26:29.262Z,101053.47
2023-05-14T00:29:33.827Z,101006.78
2023-05-14T00:32:47.562Z,101021.94
2023-05-14T00:35:52.548Z,101021.97
2023-05-14T00:38:56.644Z,101015.38
2023-05-14T00:42:01.168Z,101041.97
2023-05-14T00:45:04.114Z,101029.50
2023-05-14T00:48:07.416Z,101034.25
2023-05-14T00:51:10.143Z,101037.38
2023-05-14T00:54:13.858Z,101034.59
2023-05-14T00:57:19.596Z,101025.56
2023-05-14T01:00:28.678Z,101024.25
2023-05-14T01:03:37.887Z,100984.16
2023-05-14T01:06:52.837Z,101020.47
2023-05-14T01:10:47.076Z,101012.75
2023-05-14T01:13:57.216Z,101009.97
2023-05-14T01:17:04.507Z,101009.81
2023-05-14T01:20:11.047Z,100998.31
2023-05-14T01:23:22.811Z,100980.22
2023-05-14T01:26:49.319Z,100988.44
2023-05-14T01:33:43.465Z,100996.13
2023-05-14T01:36:53.091Z,100972.81
2023-05-14T01:40:01.078Z,100983.00
2023-05-14T01:43:13.294Z,100987.13
2023-05-14T01:46:49.188Z,100957.91
2023-05-14T01:49:58.895Z,100971.00
2023-05-14T01:53:04.653Z,100924.75
2023-05-14T01:56:08.442Z,100949.03
2023-05-14T01:59:12.722Z,100934.63
2023-05-14T02:02:26.462Z,100944.28
2023-05-14T02:05:32.077Z,100947.75
2023-05-14T02:08:45.080Z,100938.22
2023-05-14T02:11:57.582Z,100932.97
2023-05-14T02:15:09.756Z,100928.34
2023-05-14T02:18:32.500Z,100928.19
2023-05-14T02:21:51.417Z,100931.31
2023-05-14T02:25:01.963Z,100938.06
2023-05-14T02:28:08.422Z,100940.19
2023-05-14T02:31:14.835Z,100932.66
2023-05-14T02:34:18.558Z,100925.25
2023-05-14T02:37:28.181Z,100937.25
2023-05-14T02:40:49.471Z,100927.41
2023-05-14T02:44:12.915Z,100905.72
2023-05-14T02:54:27.849Z,100917.53
2023-05-14T02:57:46.853Z,100890.28
2023-05-14T03:01:15.341Z,100893.44
2023-05-14T03:04:31.829Z,100925.25
2023-05-14T03:11:23.104Z,100888.34
2023-05-14T03:19:46.992Z,100930.19
2023-05-14T03:23:20.557Z,100918.88
2023-05-14T03:30:30.234Z,100931.03
2023-05-14T03:34:13.936Z,100884.25
2023-05-14T03:38:06.063Z,100930.19
2023-05-14T03:41:24.880Z,100899.97
2023-05-14T03:52:33.716Z,100924.94
2023-05-14T04:01:12.060Z,100867.69
2023-05-14T04:04:32.529Z,100910.34
2023-05-14T04:08:27.361Z,100862.41
2023-05-14T04:12:12.294Z,100870.13
2023-05-14T04:16:13.077Z,100915.09
2023-05-14T04:24:03.236Z,100910.31
2023-05-14T04:27:27.723Z,100893.25
2023-05-14T04:31:06.085Z,100855.88
2023-05-14T04:38:43.785Z,100849.47
2023-05-14T04:42:08.036Z,100846.84
2023-05-14T04:50:35.250Z,100905.59
2023-05-14T04:54:11.460Z,100880.47
2023-05-14T04:58:14.819Z,100850.94
2023-05-14T05:19:59.727Z,100888.34
2023-05-14T05:28:31.650Z,100875.69
2023-05-14T05:33:16.230Z,100877.50
2023-05-14T06:10:47.694Z,100892.63
2023-05-14T06:22:59.008Z,100897.06
2023-05-14T06:26:15.118Z,100891.47
2023-05-14T06:29:26.751Z,100879.31
2023-05-14T06:32:54.686Z,100889.47
2023-05-14T06:36:10.139Z,100888.84
2023-05-14T06:39:16.591Z,100893.75
2023-05-14T06:42:28.542Z,100866.69
2023-05-14T06:45:49.199Z,100838.63
2023-05-14T06:48:59.780Z,100883.56
2023-05-14T06:52:04.174Z,100878.50
2023-05-14T06:55:11.367Z,100852.25
2023-05-14T06:58:22.300Z,100873.25
2023-05-14T07:01:36.308Z,100861.28
2023-05-14T07:04:53.137Z,100823.22
2023-05-14T07:07:59.264Z,100839.47
2023-05-14T07:11:07.457Z,100845.69
2023-05-14T07:14:11.364Z,100859.94
2023-05-14T07:17:23.116Z,100810.25
2023-05-14T07:20:27.555Z,100819.59
2023-05-14T07:23:36.740Z,100851.69
2023-05-14T07:26:51.221Z,100800.84
2023-05-14T07:30:14.918Z,100815.25
2023-05-14T07:33:36.564Z,100840.44
2023-05-14T07:36:49.110Z,100834.03
2023-05-14T07:39:58.730Z,100811.44
2023-05-14T07:43:24.271Z,100798.75
2023-05-14T07:51:38.594Z,100780.47
2023-05-14T08:05:54.363Z,100807.75
2023-05-14T08:09:10.269Z,100802.53
2023-05-14T08:12:32.241Z,100806.78
2023-05-14T08:16:13.080Z,100781.88
2023-05-14T08:23:00.058Z,100788.06
2023-05-14T08:26:14.496Z,100756.16
2023-05-14T08:29:22.686Z,100781.91
2023-05-14T08:32:31.934Z,100771.56
2023-05-14T08:35:45.755Z,100750.91
2023-05-14T08:39:09.702Z,100776.13
2023-05-14T08:42:33.108Z,100739.47
2023-05-14T08:45:49.727Z,100764.81
2023-05-14T08:49:09.040Z,100766.09
2023-05-14T08:52:30.838Z,100746.66
2023-05-14T08:55:59.382Z,100757.63
2023-05-14T08:59:08.747Z,100754.06
2023-05-14T09:02:34.823Z,100744.09
2023-05-14T09:05:55.001Z,100752.25
2023-05-14T09:09:01.261Z,100751.00
2023-05-14T09:12:09.027Z,100755.59
2023-05-14T09:15:22.566Z,100724.13
2023-05-14T09:18:45.767Z,100736.59
2023-05-14T09:22:03.449Z,100724.63
2023-05-14T09:25:25.691Z,100725.38
2023-05-14T09:28:56.293Z,100747.28
2023-05-14T09:32:16.872Z,100708.28
2023-05-14T09:35:28.138Z,100715.03
2023-05-14T09:38:51.424Z,100728.56
2023-05-14T09:42:01.100Z,100741.47
2023-05-14T09:45:11.531Z,100703.91
2023-05-14T09:48:20.380Z,100703.47
2023-05-14T09:51:24.324Z,100694.38
2023-05-14T09:54:35.700Z,100701.22
2023-05-14T09:57:39.796Z,100704.47
2023-05-14T10:00:51.592Z,100713.00
2023-05-14T10:04:00.129Z,100709.63
2023-05-14T10:07:04.570Z,100678.59
2023-05-14T10:10:12.346Z,100687.94
2023-05-14T10:13:20.960Z,100664.19
2023-05-14T10:16:34.885Z,100645.47
2023-05-14T10:19:41.043Z,100645.41
2023-05-14T10:22:50.433Z,100623.03
2023-05-14T10:25:57.198Z,100618.22
2023-05-14T10:29:01.604Z,100601.81
2023-05-14T10:32:07.534Z,100603.81
2023-05-14T10:35:23.812Z,100641.53
2023-05-14T10:38:28.633Z,100640.41
2023-05-14T10:41:46.641Z,100645.72
2023-05-14T10:45:07.763Z,100638.28
2023-05-14T10:48:12.489Z,100647.88
2023-05-14T10:51:24.031Z,100625.94
2023-05-14T10:54:36.112Z,100638.75
2023-05-14T10:57:47.863Z,100631.34
2023-05-14T11:01:09.270Z,100633.22
2023-05-14T11:04:28.812Z,100623.53
2023-05-14T11:07:49.795Z,100621.88
2023-05-14T11:10:57.795Z,100622.81
2023-05-14T11:14:08.464Z,100615.09
2023-05-14T11:17:45.968Z,100617.53
2023-05-14T11:21:28.970Z,100613.09
2023-05-14T11:25:24.483Z,100592.50
2023-05-14T11:32:22.688Z,100607.31
2023-05-14T11:35:27.411Z,100605.66
2023-05-14T11:38:50.045Z,100601.75
2023-05-14T11:42:06.523Z,100603.06
2023-05-14T11:45:34.758Z,100607.09
2023-05-14T11:52:15.833Z,100601.34
2023-05-14T11:55:23.807Z,100602.78
2023-05-14T12:02:03.656Z,100581.38
2023-05-14T12:05:11.736Z,100581.72
2023-05-14T12:08:43.200Z,100577.81
2023-05-14T12:12:02.457Z,100572.13
2023-05-14T12:15:34.418Z,100568.69
2023-05-14T12:18:55.917Z,100560.44
2023-05-14T12:22:13.312Z,100558.44
2023-05-14T12:25:24.883Z,100525.44
2023-05-14T12:28:38.587Z,100550.75
2023-05-14T12:32:03.570Z,100539.66
2023-05-14T12:35:17.283Z,100533.31
2023-05-14T12:38:29.983Z,100549.53
2023-05-14T12:41:55.668Z,100515.41
2023-05-14T12:45:07.477Z,100538.63
2023-05-14T12:48:21.465Z,100530.31
2023-05-14T12:51:31.605Z,100536.63
2023-05-14T12:54:44.943Z,100543.19
2023-05-14T12:57:58.735Z,100493.31
2023-05-14T13:01:11.180Z,100517.59
2023-05-14T13:08:02.885Z,100482.25
2023-05-14T13:11:09.771Z,100483.81
2023-05-14T13:14:43.745Z,100496.13
2023-05-14T13:18:25.635Z,100496.97
2023-05-14T13:21:44.532Z,100479.00
2023-05-14T13:28:34.899Z,100478.56
2023-05-14T13:31:49.543Z,100416.28
2023-05-14T13:35:12.067Z,100418.56
2023-05-14T13:42:12.778Z,100461.25
2023-05-14T13:45:25.904Z,100456.63
2023-05-14T13:48:45.192Z,100444.00
2023-05-14T13:51:56.673Z,100431.59
2023-05-14T13:55:26.537Z,100432.59
2023-05-14T13:58:33.612Z,100421.75
2023-05-14T14:01:55.572Z,100431.25
2023-05-14T14:05:05.363Z,100385.75
2023-05-14T14:08:23.457Z,100423.38
2023-05-14T14:11:35.456Z,100420.56
2023-05-14T14:14:54.584Z,100412.88
2023-05-14T14:18:29.232Z,100424.00
2023-05-14T14:21:46.300Z,100422.97
2023-05-14T14:25:13.183Z,100418.94
2023-05-14T14:28:26.086Z,100391.00
2023-05-14T14:31:44.851Z,100423.56
2023-05-14T14:34:50.678Z,100427.00
2023-05-14T14:38:01.308Z,100418.47
2023-05-14T14:41:31.511Z,100407.66
2023-05-14T14:45:01.392Z,100409.88
2023-05-14T14:48:36.797Z,100401.69
2023-05-14T14:55:32.287Z,100395.91
2023-05-14T14:59:01.559Z,100369.72
2023-05-14T15:02:48.241Z,100388.19
2023-05-14T15:06:31.118Z,100331.06
2023-05-14T15:09:51.484Z,100351.31
2023-05-14T15:13:15.663Z,100364.81
2023-05-14T15:16:35.471Z,100370.41
2023-05-14T15:19:45.925Z,100306.06
2023-05-14T15:23:16.237Z,100339.69
2023-05-14T15:26:29.980Z,100354.56
2023-05-14T15:30:05.135Z,100323.19
2023-05-14T15:33:24.015Z,100326.97
2023-05-14T15:36:42.850Z,100348.03
2023-05-14T15:39:52.249Z,100360.00
2023-05-14T15:43:05.759Z,100323.44
2023-05-14T15:46:18.586Z,100349.22
2023-05-14T15:49:27.963Z,100357.25
2023-05-14T15:52:52.953Z,100342.16
2023-05-14T15:56:23.638Z,100272.75
2023-05-14T15:59:31.852Z,100287.53
2023-05-14T16:02:35.454Z,100298.88
2023-05-14T16:05:48.696Z,100272.69
2023-05-14T16:08:58.748Z,100288.91
2023-05-14T16:12:04.519Z,100293.97
2023-05-14T16:15:09.541Z,100267.34
2023-05-14T16:18:16.810Z,100259.28
2023-05-14T16:21:25.962Z,100301.78
2023-05-14T16:24:28.886Z,100260.47
2023-05-14T16:27:33.771Z,100305.88
2023-05-14T16:30:37.161Z,100305.88
2023-05-14T16:33:52.614Z,100296.19
2023-05-14T16:37:00.196Z,100245.44
2023-05-14T16:40:03.909Z,100285.16
2023-05-14T16:43:13.069Z,100253.59
2023-05-14T16:46:19.824Z,100270.00
2023-05-14T16:49:25.664Z,100241.94
2023-05-14T16:52:51.990Z,100245.31
2023-05-14T16:56:20.133Z,100250.63
2023-05-14T16:59:46.459Z,100229.44
2023-05-14T17:03:03.729Z,100226.38
2023-05-14T17:06:15.890Z,100251.44
2023-05-14T17:09:24.569Z,100232.25
2023-05-14T17:12:37.294Z,100246.94
2023-05-14T17:15:50.030Z,100244.91
2023-05-14T17:18:56.569Z,100211.25
2023-05-14T17:22:01.039Z,100179.03
2023-05-14T17:25:06.487Z,100238.44
2023-05-14T17:28:26.852Z,100222.66
2023-05-14T17:31:33.945Z,100205.56
2023-05-14T17:34:50.738Z,100189.09
2023-05-14T17:38:01.081Z,100189.53
2023-05-14T17:41:23.350Z,100151.97
2023-05-14T17:44:33.076Z,100190.19
2023-05-14T17:47:40.921Z,100158.94
2023-05-14T17:50:48.138Z,100207.72
2023-05-14T17:54:02.989Z,100195.13
2023-05-14T17:57:07.797Z,100173.25
2023-05-14T18:00:14.048Z,100162.47
2023-05-14T18:03:20.625Z,100177.13
2023-05-14T18:06:30.321Z,100151.44
2023-05-14T18:09:39.235Z,100185.63
2023-05-14T18:12:50.504Z,100170.50
2023-05-14T18:16:04.013Z,100164.25
2023-05-14T18:19:21.424Z,100160.53
2023-05-14T18:22:35.031Z,100175.94
2023-05-14T18:26:34.218Z,100142.47
2023-05-14T18:33:21.504Z,100173.78
2023-05-14T18:39:54.856Z,100186.88
2023-05-14T18:46:46.156Z,100162.47
2023-05-14T18:49:59.564Z,100193.38
2023-05-14T18:53:23.818Z,100197.44
2023-05-14T18:56:55.006Z,100146.44
2023-05-14T19:04:26.455Z,100170.03
2023-05-14T19:08:13.287Z,100156.38
2023-05-14T19:20:29.487Z,100170.88
2023-05-14T19:27:48.999Z,100157.34
2023-05-14T19:31:14.397Z,100150.63
2023-05-14T19:34:45.423Z,100166.81
2023-05-14T19:38:21.825Z,100159.19
2023-05-14T19:46:21.704Z,100160.69
2023-05-14T19:50:27.186Z,100111.91
2023-05-14T19:57:45.253Z,100137.50
2023-05-14T20:01:56.084Z,100158.81
2023-05-14T20:05:57.581Z,100154.00
2023-05-14T20:09:33.213Z,100143.75
2023-05-14T20:12:59.627Z,100124.59
2023-05-14T20:16:20.827Z,100143.09
2023-05-14T20:19:49.654Z,100134.22
2023-05-14T20:23:25.495Z,100139.44
2023-05-14T20:31:11.597Z,100114.16
2023-05-14T20:35:11.679Z,100117.69
2023-05-14T20:38:30.063Z,100100.81
2023-05-14T20:41:52.027Z,100114.25
2023-05-14T20:45:06.064Z,100113.53
2023-05-14T20:51:51.753Z,100085.00
2023-05-14T20:55:00.852Z,100073.88
2023-05-14T20:58:12.124Z,100078.63
2023-05-14T21:01:19.227Z,100078.00
2023-05-14T21:04:30.308Z,100077.41
2023-05-14T21:07:37.639Z,100070.75
2023-05-14T21:10:48.175Z,100018.34
2023-05-14T21:13:54.568Z,100071.53
2023-05-14T21:16:57.806Z,100066.53
2023-05-14T21:20:04.064Z,100064.72
2023-05-14T21:23:13.597Z,100066.34
2023-05-14T21:26:29.622Z,100057.84
2023-05-14T21:29:39.472Z,100052.59
2023-05-14T21:32:42.836Z,100051.78
2023-05-14T21:35:54.238Z,100052.16
2023-05-14T21:38:58.470Z,100025.28
2023-05-14T21:42:17.513Z,100008.69
2023-05-14T21:45:30.841Z,99958.69
2023-05-14T21:48:58.145Z,99957.28
2023-05-14T21:56:01.730Z,99990.63
2023-05-14T21:59:39.596Z,99980.81
2023-05-14T22:02:55.437Z,99957.22
2023-05-14T22:06:15.220Z,99959.47
2023-05-14T22:09:19.122Z,99997.09
2023-05-14T22:12:34.973Z,99977.16
2023-05-14T22:15:58.134Z,99987.47
2023-05-14T22:19:33.527Z,100015.69
2023-05-14T22:22:48.673Z,99982.84
2023-05-14T22:26:00.246Z,100012.31
2023-05-14T22:29:16.889Z,99959.97
2023-05-14T22:32:25.974Z,100008.06
2023-05-14T22:35:47.330Z,99969.09
2023-05-14T22:39:01.184Z,100002.00
2023-05-14T22:42:10.772Z,99972.41
2023-05-14T22:45:15.385Z,99985.44
2023-05-14T22:48:34.388Z,100006.53
2023-05-14T22:52:01.956Z,99973.19
2023-05-14T22:55:20.090Z,100005.28
2023-05-14T22:58:52.742Z,100009.72
2023-05-14T23:02:11.418Z,100002.22
2023-05-14T23:05:27.066Z,99990.72
2023-05-14T23:08:49.332Z,99999.22
2023-05-14T23:12:18.187Z,99973.22
2023-05-14T23:15:38.826Z,99990.31
2023-05-14T23:19:07.513Z,99951.56
2023-05-14T23:22:35.263Z,99983.53
2023-05-14T23:26:10.267Z,99967.13
2023-05-14T23:29:43.540Z,99968.56
2023-05-14T23:33:04.598Z,99919.50
2023-05-14T23:36:48.522Z,99948.50
2023-05-14T23:44:11.696Z,99952.31
2023-05-14T23:47:45.447Z,99941.59
2023-05-14T23:51:42.056Z,99930.28
2023-05-14T23:55:02.557Z,99923.63
2023-05-14T23:58:41.827Z,99929.72
